地図

経路データ

SID SEASON NUMBER BASIN SUBBASIN NAME ISO_TIME NATURE LAT LON WMO_WIND WMO_PRES WMO_AGENCY TRACK_TYPE DIST2LAND LANDFALL IFLAG USA_AGENCY USA_ATCF_ID USA_LAT USA_LON USA_RECORD USA_STATUS USA_WIND USA_PRES USA_SSHS USA_R34_NE USA_R34_SE USA_R34_SW USA_R34_NW USA_R50_NE USA_R50_SE USA_R50_SW USA_R50_NW USA_R64_NE USA_R64_SE USA_R64_SW USA_R64_NW USA_POCI USA_ROCI USA_RMW USA_EYE TOKYO_LAT TOKYO_LON TOKYO_GRADE TOKYO_WIND TOKYO_PRES TOKYO_R50_DIR TOKYO_R50_LONG TOKYO_R50_SHORT TOKYO_R30_DIR TOKYO_R30_LONG TOKYO_R30_SHORT TOKYO_LAND CMA_LAT CMA_LON CMA_CAT CMA_WIND CMA_PRES HKO_LAT HKO_LON HKO_CAT HKO_WIND HKO_PRES NEWDELHI_LAT NEWDELHI_LON NEWDELHI_GRADE NEWDELHI_WIND NEWDELHI_PRES NEWDELHI_CI NEWDELHI_DP NEWDELHI_POCI REUNION_LAT REUNION_LON REUNION_TYPE REUNION_WIND REUNION_PRES REUNION_TNUM REUNION_CI REUNION_RMW REUNION_R34_NE REUNION_R34_SE REUNION_R34_SW REUNION_R34_NW REUNION_R50_NE REUNION_R50_SE REUNION_R50_SW REUNION_R50_NW REUNION_R64_NE REUNION_R64_SE REUNION_R64_SW REUNION_R64_NW BOM_LAT BOM_LON BOM_TYPE BOM_WIND BOM_PRES BOM_TNUM BOM_CI BOM_RMW BOM_R34_NE BOM_R34_SE BOM_R34_SW BOM_R34_NW BOM_R50_NE BOM_R50_SE BOM_R50_SW BOM_R50_NW BOM_R64_NE BOM_R64_SE BOM_R64_SW BOM_R64_NW BOM_ROCI BOM_POCI BOM_EYE BOM_POS_METHOD BOM_PRES_METHOD NADI_LAT NADI_LON NADI_CAT NADI_WIND NADI_PRES WELLINGTON_LAT WELLINGTON_LON WELLINGTON_WIND WELLINGTON_PRES DS824_LAT DS824_LON DS824_STAGE DS824_WIND DS824_PRES TD9636_LAT TD9636_LON TD9636_STAGE TD9636_WIND TD9636_PRES TD9635_LAT TD9635_LON TD9635_WIND TD9635_PRES TD9635_ROCI NEUMANN_LAT NEUMANN_LON NEUMANN_CLASS NEUMANN_WIND NEUMANN_PRES MLC_LAT MLC_LON MLC_CLASS MLC_WIND MLC_PRES USA_GUST BOM_GUST BOM_GUST_PER REUNION_GUST REUNION_GUST_PER USA_SEAHGT USA_SEARAD_NE USA_SEARAD_SE USA_SEARAD_SW USA_SEARAD_NW STORM_SPEED STORM_DIR
1964120S13061 1964 29 SI MM JOSE 1964-04-29 06:00:00 TS -13.4000 61.2000 main 837 822 O________OO___ jtwc_sh SH341964 -13.4000 61.2000 -1 -13.4000 61.2000 TC 25 -13.4000 61.2000 7 6 129
1964120S13061 1964 29 SI MM JOSE 1964-04-29 09:00:00 TS -13.6005 61.4493 main 827 827 P________PP___ SH341964 -13.5976 61.4499 -1 -13.5976 61.4499 TC 25 -13.6065 61.4481 7 6 97
1964120S13061 1964 29 SI MM JOSE 1964-04-29 12:00:00 TS -13.4756 61.8447 reunion main 857 857 O____O___OP_O_ jtwc_sh SH341964 -13.8000 61.7000 -1 -12.0000 62.5000 2 9.90000 -13.8000 61.7000 TC 25 -13.8104 61.6972 7 -12.0000 62.5000 TC 30 6 89
1964120S13061 1964 29 SI MM JOSE 1964-04-29 15:00:00 TS -13.5866 62.0850 main 864 861 P____P___PP_P_ SH341964 -14.0075 61.9500 -1 -12.3225 62.4925 2 -14.0075 61.9500 TC 30 -14.0090 61.9476 7 -12.3225 62.4925 TC 32 5 117
1964120S13061 1964 29 SI MM JOSE 1964-04-29 18:00:00 TS -13.7000 62.3000 reunion main 867 861 O____O___OO_O_ jtwc_sh SH341964 -14.2000 62.2000 -1 -12.7000 62.5000 99 9.90000 -14.2000 62.2000 TC 35 -14.2000 62.2000 2 -12.7000 62.5000 TC 35 5 128
1964120S13061 1964 29 SI MM JOSE 1964-04-29 21:00:00 TS -13.8820 62.4795 main 861 849 P____P___PP_P_ SH341964 -14.3574 62.4351 -1 -13.1575 62.5350 99 -14.3574 62.4351 TC 35 -14.3803 62.4573 2 -13.1575 62.5350 TC 37 6 142
1964120S13061 1964 29 SI MM JOSE 1964-04-30 00:00:00 TS -14.1489 62.6665 reunion main 856 843 O____O___OP_O_ jtwc_sh SH341964 -14.5000 62.7000 -1 -13.6000 62.6000 99 9.90000 -14.5000 62.7000 TC 35 -14.5445 62.7326 2 -13.6000 62.6000 TC 40 6 140
1964120S13061 1964 29 SI MM JOSE 1964-04-30 03:00:00 TS -14.3633 62.8933 main 843 842 P____P___PP_P_ SH341964 -14.6574 63.0200 -1 -13.9075 62.6925 99 -14.6574 63.0200 TC 35 -14.6864 63.0416 2 -13.9075 62.6925 TC 42 6 131
1964120S13061 1964 29 SI MM JOSE 1964-04-30 06:00:00 TS -14.5600 63.1600 reunion main 848 846 O____O___OO_O_ jtwc_sh SH341964 -14.8000 63.4000 -1 -14.2000 62.8000 3 9.90000 -14.8000 63.4000 TC 35 -14.8000 63.4000 2 -14.2000 62.8000 TC 45 7 128
1964120S13061 1964 29 SI MM JOSE 1964-04-30 09:00:00 TS -14.7894 63.4516 main 854 846 P____P___PP_P_ SH341964 -14.9224 63.8275 -1 -14.6075 62.8850 3 -14.9224 63.8275 TC 35 -14.8871 63.8329 2 -14.6075 62.8850 TC 45 7 125
1964120S13061 1964 29 SI MM JOSE 1964-04-30 12:00:00 TS -14.9891 63.7825 reunion main 862 862 O____O___OP_O_ jtwc_sh SH341964 -15.0000 64.3000 -1 -15.0000 63.0000 99 9.90000 -15.0000 64.3000 TC 35 -14.9454 64.3126 2 -15.0000 63.0000 TC 45 7 116
1964120S13061 1964 29 SI MM JOSE 1964-04-30 15:00:00 TS -15.1141 64.1473 main 879 879 P____P___PP_P_ SH341964 -15.0150 64.8001 -1 -15.2799 63.1626 99 -15.0150 64.8001 TC 35 -14.9808 64.8110 2 -15.2799 63.1626 TC 42 8 106
1964120S13061 1964 29 SI MM JOSE 1964-04-30 18:00:00 TS -15.2000 64.5400 reunion main 905 905 O____O___OO_O_ jtwc_sh SH341964 -15.0000 65.3000 -1 -15.5000 63.4000 99 9.90000 -15.0000 65.3000 TC 35 -15.0000 65.3000 2 -15.5000 63.4000 TC 40 8 103
1964120S13061 1964 29 SI MM JOSE 1964-04-30 21:00:00 TS -15.2919 64.9579 main 941 941 P____P___PP_P_ SH341964 -14.9999 65.7650 -1 -15.7226 63.7499 99 -14.9999 65.7650 TC 35 -15.0142 65.7598 2 -15.7226 63.7499 TC 37 8 102
1964120S13061 1964 29 SI MM JOSE 1964-05-01 00:00:00 TS -15.3630 65.3605 reunion main 970 970 O____O___OP_O_ jtwc_sh SH341964 -15.0000 66.2000 -1 -15.9000 64.1000 99 9.90000 -15.0000 66.2000 TC 35 -15.0149 66.2027 2 -15.9000 64.1000 TC 35 7 99
1964120S13061 1964 29 SI MM JOSE 1964-05-01 03:00:00 TS -15.4045 65.6959 main 996 996 P____P___PP_P_ SH341964 -14.9999 66.6150 -1 -16.0074 64.3152 99 -14.9999 66.6150 TC 35 -15.0081 66.6192 2 -16.0074 64.3152 TC 32 6 97
1964120S13061 1964 29 SI MM JOSE 1964-05-01 06:00:00 TS -15.4400 66.0000 reunion main 1024 1024 O____O___OO_O_ jtwc_sh SH341964 -15.0000 67.0000 -1 -16.1000 64.5000 2 9.90000 -15.0000 67.0000 TC 35 -15.0000 67.0000 2 -16.1000 64.5000 TC 30 6 99
1964120S13061 1964 29 SI MM JOSE 1964-05-01 09:00:00 TS -15.5004 66.2933 main 1045 1045 P____P___PP_P_ SH341964 -15.0000 67.3725 -1 -16.2572 64.6825 2 -15.0000 67.3725 TC 35 -14.9876 67.3563 2 -16.2572 64.6825 TC 30 6 101
1964120S13061 1964 29 SI MM JOSE 1964-05-01 12:00:00 TS -15.5555 66.6150 reunion main 1067 1067 O____O___OP_O_ jtwc_sh SH341964 -15.0000 67.7000 -1 -16.4000 65.0000 99 9.90000 -15.0000 67.7000 TC 35 -14.9773 67.6751 2 -16.4000 65.0000 TC 30 7 98
1964120S13061 1964 29 SI MM JOSE 1964-05-01 15:00:00 TS -15.5906 67.0042 main 1105 1105 P____P___PP_P_ SH341964 -14.9924 67.9725 -1 -16.4949 65.5598 99 -14.9924 67.9725 TC 35 -14.9783 67.9563 2 -16.4949 65.5598 TC 30 8 93
1964120S13061 1964 29 SI MM JOSE 1964-05-01 18:00:00 TS -15.6000 67.4400 reunion main 1143 1143 O____O___OO_O_ jtwc_sh SH341964 -15.0000 68.2000 -1 -16.5000 66.3000 99 9.90000 -15.0000 68.2000 TC 35 -15.0000 68.2000 2 -16.5000 66.3000 TC 30 8 88
1964120S13061 1964 29 SI MM JOSE 1964-05-01 21:00:00 TS -15.5683 67.8847 main 1190 1190 P____P___PP_P_ SH341964 -15.0350 68.4150 -1 -16.3570 67.0831 99 -15.0350 68.4150 TC 35 -15.0574 68.4271 2 -16.3570 67.0831 TC 30 9 87
1964120S13061 1964 29 SI MM JOSE 1964-05-02 00:00:00 TS -15.5470 68.3635 reunion main 1243 1238 O____O___OP_O_ jtwc_sh SH341964 -15.1000 68.6000 -1 -16.2000 68.0000 99 9.90000 -15.1000 68.6000 TC 35 -15.1348 68.6174 2 -16.2000 68.0000 TC 30 10 91
1964120S13061 1964 29 SI MM JOSE 1964-05-02 03:00:00 TS -15.5858 68.8769 main 1286 1286 P____P___PP_P_ SH341964 -15.2000 68.7650 -1 -16.1546 69.0402 99 -15.2000 68.7650 TC 35 -15.2199 68.7740 2 -16.1546 69.0402 TC 27 9 93
1964120S13061 1964 29 SI MM JOSE 1964-05-02 06:00:00 TS -15.6000 69.3333 reunion main 1324 1324 O____O___OO_O_ jtwc_sh SH341964 -15.3000 68.9000 -1 -16.2000 70.2000 6 9.90000 -15.3000 68.9000 TC 35 -15.3000 68.9000 2 -16.2000 70.2000 TC 25 7 91
1964120S13061 1964 29 SI MM JOSE 1964-05-02 09:00:00 TS -15.5993 69.6174 main 1354 1354 P____P___PP_P_ SH341964 -15.3575 69.0150 -1 -16.3290 71.4318 6 -15.3575 69.0150 TC 35 -15.3531 69.0079 2 -16.3290 71.4318 TC 22 3 81
1964120S13061 1964 29 SI MM JOSE 1964-05-02 12:00:00 TS -15.5571 69.6107 reunion main 1354 1319 O____O___OP_O_ jtwc_sh SH341964 -15.4000 69.1000 -1 -16.5000 72.7000 99 9.90000 -15.4000 69.1000 TC 35 -15.3999 69.0876 2 -16.5000 72.7000 TC 20 5 289
1964120S13061 1964 29 SI MM JOSE 1964-05-02 15:00:00 TS -15.4489 69.1545 main 1324 1310 P________PP___ SH341964 -15.4500 69.1575 -1 99 -15.4500 69.1575 TC 35 -15.4468 69.1485 2 TC 4 278
1964120S13061 1964 29 SI MM JOSE 1964-05-02 18:00:00 TS -15.5000 69.2000 main 1319 1319 O________OO___ jtwc_sh SH341964 -15.5000 69.2000 -1 -15.5000 69.2000 TC 35 -15.5000 69.2000 2 1 140
1964120S13061 1964 29 SI MM JOSE 1964-05-02 21:00:00 TS -15.5497 69.2500 main 1329 1319 P________PP___ SH341964 -15.5425 69.2500 -1 -15.5425 69.2500 TC 35 -15.5641 69.2500 2 1 139
1964120S13061 1964 29 SI MM JOSE 1964-05-03 00:00:00 TS -15.6125 69.3000 main 1324 1320 O________OP___ jtwc_sh SH341964 -15.6000 69.3000 -1 -15.6000 69.3000 TC 35 -15.6375 69.2999 2 2 148
1964120S13061 1964 29 SI MM JOSE 1964-05-03 03:00:00 TS -15.6991 69.3500 main 1320 1320 P________PP___ SH341964 -15.6900 69.3500 -1 -15.6900 69.3500 TC 35 -15.7172 69.3499 2 2 154
1964120S13061 1964 29 SI MM JOSE 1964-05-03 06:00:00 TS -15.8000 69.4000 main 1325 O________OO___ jtwc_sh SH341964 -15.8000 69.4000 -1 -15.8000 69.4000 TC 35 -15.8000 69.4000 2 2 154

IBTrACS Databaseについて

本データベースは、米国NOAAが公開する1842年以降の世界の熱帯低気圧のベストトラックデータアーカイブInternational Best Track Archive for Climate Stewardship (IBTrACS)を、ウェブで閲覧しやすい形式に変換したものです。

最終更新日:2021-10-19